createdAt,value
2023-01-13T00:01:33.179Z,100563.32
2023-01-13T00:04:01.596Z,100566.74
2023-01-13T00:06:29.913Z,100568.18
2023-01-13T00:08:58.334Z,100561.73
2023-01-13T00:11:27.932Z,100557.76
2023-01-13T00:13:56.403Z,100558.64
2023-01-13T00:16:25.008Z,100557.58
2023-01-13T00:18:53.437Z,100555.52
2023-01-13T00:21:24.476Z,100555.05
2023-01-13T00:23:54.395Z,100555.87
2023-01-13T00:26:26.059Z,100545.27
2023-01-13T00:28:58.844Z,100555.80
2023-01-13T00:31:29.076Z,100543.72
2023-01-13T00:33:59.220Z,100551.02
2023-01-13T00:36:28.936Z,100546.73
2023-01-13T00:38:58.061Z,100547.74
2023-01-13T00:41:27.227Z,100545.92
2023-01-13T00:43:55.551Z,100545.77
2023-01-13T00:46:24.121Z,100539.77
2023-01-13T00:48:52.375Z,100537.35
2023-01-13T00:51:22.111Z,100540.44
2023-01-13T00:53:52.244Z,100539.14
2023-01-13T00:56:39.040Z,100541.91
2023-01-13T00:59:12.841Z,100532.35
2023-01-13T01:01:41.894Z,100526.55
2023-01-13T01:04:11.298Z,100519.04
2023-01-13T01:06:39.724Z,100520.33
2023-01-13T01:09:08.005Z,100514.48
2023-01-13T01:11:36.625Z,100512.39
2023-01-13T01:14:05.104Z,100505.81
2023-01-13T01:16:34.740Z,100497.77
2023-01-13T01:19:04.138Z,100491.70
2023-01-13T01:21:33.230Z,100492.88
2023-01-13T01:24:03.331Z,100487.04
2023-01-13T01:26:32.853Z,100482.84
2023-01-13T01:29:02.557Z,100485.46
2023-01-13T01:31:33.564Z,100481.53
2023-01-13T01:34:02.295Z,100476.81
2023-01-13T01:36:30.861Z,100477.67
2023-01-13T01:39:00.156Z,100477.16
2023-01-13T01:41:32.228Z,100474.11
2023-01-13T01:44:26.035Z,100471.33
2023-01-13T01:46:56.876Z,100467.19
2023-01-13T01:49:37.098Z,100464.52
2023-01-13T01:52:24.767Z,100461.73
2023-01-13T01:55:01.971Z,100458.73
2023-01-13T01:57:58.768Z,100457.83
2023-01-13T02:00:27.976Z,100454.63
2023-01-13T02:02:57.433Z,100457.02
2023-01-13T02:05:25.911Z,100448.88
2023-01-13T02:07:57.051Z,100447.02
2023-01-13T02:10:28.134Z,100445.73
2023-01-13T02:13:05.318Z,100441.80
2023-01-13T02:15:38.818Z,100444.67
2023-01-13T02:18:13.153Z,100440.29
2023-01-13T02:21:35.300Z,100438.19
2023-01-13T02:24:50.654Z,100430.43
2023-01-13T02:27:38.087Z,100429.19
2023-01-13T02:30:45.817Z,100426.06
2023-01-13T02:33:24.229Z,100424.84
2023-01-13T02:36:09.468Z,100423.79
2023-01-13T02:38:47.741Z,100420.75
2023-01-13T02:41:45.016Z,100415.70
2023-01-13T02:44:21.009Z,100411.11
2023-01-13T02:46:56.499Z,100413.72
2023-01-13T02:49:33.695Z,100409.00
2023-01-13T02:52:16.906Z,100405.35
2023-01-13T02:54:52.300Z,100385.15
2023-01-13T02:57:21.971Z,100402.80
2023-01-13T02:59:52.938Z,100400.11
2023-01-13T03:02:23.703Z,100392.27
2023-01-13T03:05:00.554Z,100393.36
2023-01-13T03:07:55.917Z,100393.52
2023-01-13T03:10:44.321Z,100389.44
2023-01-13T03:13:36.884Z,100389.33
2023-01-13T03:16:24.038Z,100384.92
2023-01-13T03:19:02.299Z,100384.35
2023-01-13T03:22:02.016Z,100386.22
2023-01-13T03:24:41.988Z,100379.42
2023-01-13T03:27:20.623Z,100375.21
2023-01-13T03:30:09.276Z,100377.11
2023-01-13T03:32:42.797Z,100373.77
2023-01-13T03:35:21.825Z,100375.80
2023-01-13T03:38:17.576Z,100369.20
2023-01-13T03:40:56.564Z,100362.66
2023-01-13T03:43:49.557Z,100362.16
2023-01-13T03:46:23.613Z,100359.20
2023-01-13T03:48:56.610Z,100359.29
2023-01-13T03:51:29.013Z,100360.98
2023-01-13T03:54:02.381Z,100358.58
2023-01-13T03:56:41.681Z,100362.23
2023-01-13T03:59:16.843Z,100356.46
2023-01-13T04:01:53.252Z,100350.80
2023-01-13T04:04:24.188Z,100356.66
2023-01-13T04:07:08.909Z,100353.94
2023-01-13T04:09:42.232Z,100350.20
2023-01-13T04:12:20.659Z,100351.38
2023-01-13T04:14:49.707Z,100350.63
2023-01-13T04:17:18.944Z,100348.32
2023-01-13T04:19:47.327Z,100342.88
2023-01-13T04:22:15.479Z,100351.81
2023-01-13T04:24:43.589Z,100346.73
2023-01-13T04:27:12.158Z,100344.70
2023-01-13T04:29:40.289Z,100344.42
2023-01-13T04:32:08.700Z,100330.31
2023-01-13T04:34:36.859Z,100339.63
2023-01-13T04:37:05.035Z,100339.95
2023-01-13T04:39:33.175Z,100339.34
2023-01-13T04:42:02.812Z,100343.13
2023-01-13T04:44:35.229Z,100341.55
2023-01-13T04:47:04.098Z,100340.67
2023-01-13T04:49:32.176Z,100326.81
2023-01-13T04:52:02.402Z,100338.84
2023-01-13T04:54:30.560Z,100336.04
2023-01-13T04:56:58.706Z,100338.56
2023-01-13T04:59:26.780Z,100322.27
2023-01-13T05:01:55.124Z,100331.55
2023-01-13T05:04:23.322Z,100333.29
2023-01-13T05:06:51.500Z,100336.70
2023-01-13T05:09:19.672Z,100331.42
2023-01-13T05:12:06.235Z,100330.99
2023-01-13T05:14:53.044Z,100329.50
2023-01-13T05:17:24.306Z,100326.42
2023-01-13T05:19:52.485Z,100326.46
2023-01-13T05:22:39.410Z,100334.35
2023-01-13T05:25:22.126Z,100330.54
2023-01-13T05:27:55.168Z,100334.93
2023-01-13T05:30:29.711Z,100336.92
2023-01-13T05:32:58.694Z,100337.33
2023-01-13T05:35:27.117Z,100337.73
2023-01-13T05:37:55.844Z,100337.90
2023-01-13T05:40:42.968Z,100341.77
2023-01-13T05:43:25.802Z,100339.86
2023-01-13T05:46:05.359Z,100343.28
2023-01-13T05:48:38.748Z,100341.94
2023-01-13T05:51:09.381Z,100337.98
2023-01-13T05:53:37.902Z,100339.39
2023-01-13T05:56:07.273Z,100341.00
2023-01-13T05:58:35.922Z,100343.03
2023-01-13T06:01:06.813Z,100340.91
2023-01-13T06:03:35.738Z,100337.83
2023-01-13T06:06:04.680Z,100342.31
2023-01-13T06:08:33.247Z,100340.20
2023-01-13T06:11:01.742Z,100347.88
2023-01-13T06:13:31.321Z,100349.92
2023-01-13T06:15:59.730Z,100351.98
2023-01-13T06:18:28.708Z,100352.11
2023-01-13T06:20:57.436Z,100352.52
2023-01-13T06:23:25.821Z,100357.11
2023-01-13T06:25:56.917Z,100361.88
2023-01-13T06:28:25.106Z,100365.88
2023-01-13T06:30:57.832Z,100361.98
2023-01-13T06:33:32.714Z,100363.37
2023-01-13T06:36:06.360Z,100368.14
2023-01-13T06:38:36.319Z,100368.05
2023-01-13T06:41:07.304Z,100366.58
2023-01-13T06:43:35.769Z,100370.38
2023-01-13T06:46:04.544Z,100373.14
2023-01-13T06:48:35.200Z,100380.30
2023-01-13T06:51:05.111Z,100372.40
2023-01-13T06:53:33.658Z,100371.11
2023-01-13T06:56:01.783Z,100371.66
2023-01-13T06:58:29.845Z,100368.08
2023-01-13T07:01:00.726Z,100379.30
2023-01-13T07:03:29.298Z,100375.81
2023-01-13T07:05:57.798Z,100376.38
2023-01-13T07:08:26.061Z,100378.17
2023-01-13T07:10:54.574Z,100387.25
2023-01-13T07:13:41.801Z,100387.94
2023-01-13T07:16:10.414Z,100375.67
2023-01-13T07:18:39.236Z,100392.73
2023-01-13T07:21:13.352Z,100392.60
2023-01-13T07:23:42.244Z,100402.25
2023-01-13T07:26:11.242Z,100397.52
2023-01-13T07:28:40.453Z,100396.48
2023-01-13T07:31:23.698Z,100395.38
2023-01-13T07:33:52.022Z,100394.60
2023-01-13T07:36:20.223Z,100388.58
2023-01-13T07:38:49.426Z,100393.56
2023-01-13T07:41:36.211Z,100395.98
2023-01-13T07:44:06.492Z,100400.77
2023-01-13T07:46:34.598Z,100403.70
2023-01-13T07:49:03.531Z,100410.09
2023-01-13T07:51:31.877Z,100407.51
2023-01-13T07:54:00.057Z,100412.16
2023-01-13T07:56:28.282Z,100414.73
2023-01-13T07:58:56.562Z,100413.52
2023-01-13T08:01:24.926Z,100416.60
2023-01-13T08:03:53.407Z,100415.98
2023-01-13T08:06:21.954Z,100420.83
2023-01-13T08:08:50.782Z,100419.04
2023-01-13T08:11:19.821Z,100429.09
2023-01-13T08:13:51.037Z,100425.94
2023-01-13T08:16:19.306Z,100429.77
2023-01-13T08:18:47.837Z,100432.98
2023-01-13T08:21:16.029Z,100432.63
2023-01-13T08:23:45.786Z,100433.92
2023-01-13T08:26:17.441Z,100435.23
2023-01-13T08:28:46.373Z,100434.41
2023-01-13T08:31:16.785Z,100430.99
2023-01-13T08:33:45.139Z,100429.27
2023-01-13T08:36:13.350Z,100440.27
2023-01-13T08:38:42.415Z,100431.08
2023-01-13T08:41:13.482Z,100440.44
2023-01-13T08:43:41.880Z,100438.85
2023-01-13T08:46:10.522Z,100438.97
2023-01-13T08:48:38.725Z,100441.08
2023-01-13T08:51:09.337Z,100443.28
2023-01-13T08:53:37.581Z,100445.43
2023-01-13T08:56:13.274Z,100448.04
2023-01-13T08:58:41.681Z,100448.77
2023-01-13T09:01:15.405Z,100448.34
2023-01-13T09:03:43.958Z,100450.15
2023-01-13T09:06:12.197Z,100449.05
2023-01-13T09:08:40.500Z,100447.38
2023-01-13T09:11:35.435Z,100434.39
2023-01-13T09:14:04.450Z,100446.23
2023-01-13T09:16:32.619Z,100442.53
2023-01-13T09:19:00.869Z,100439.36
2023-01-13T09:21:29.018Z,100439.36
2023-01-13T09:23:57.179Z,100440.95
2023-01-13T09:26:25.297Z,100435.44
2023-01-13T09:28:53.418Z,100442.36
2023-01-13T09:31:21.626Z,100449.70
2023-01-13T09:34:09.376Z,100433.96
2023-01-13T09:36:37.548Z,100449.16
2023-01-13T09:39:06.037Z,100452.23
2023-01-13T09:42:00.462Z,100453.92
2023-01-13T09:45:20.167Z,100466.14
2023-01-13T09:48:12.966Z,100468.79
2023-01-13T09:50:51.695Z,100464.36
2023-01-13T09:53:25.940Z,100467.28
2023-01-13T09:55:55.155Z,100463.58
2023-01-13T09:58:25.000Z,100464.68
2023-01-13T10:00:55.940Z,100454.25
2023-01-13T10:03:30.094Z,100466.23
2023-01-13T10:05:58.249Z,100462.04
2023-01-13T10:08:29.872Z,100464.52
2023-01-13T10:11:00.672Z,100466.76
2023-01-13T10:13:31.214Z,100466.02
2023-01-13T10:16:19.051Z,100459.59
2023-01-13T10:18:56.096Z,100465.58
2023-01-13T10:21:59.231Z,100458.12
2023-01-13T10:24:36.100Z,100456.16
2023-01-13T10:27:24.501Z,100456.73
2023-01-13T10:29:52.675Z,100454.73
2023-01-13T10:32:21.026Z,100457.06
2023-01-13T10:34:52.062Z,100457.99
2023-01-13T10:37:22.400Z,100456.21
2023-01-13T10:39:55.496Z,100451.86
2023-01-13T10:42:25.565Z,100452.52
2023-01-13T10:44:59.409Z,100451.69
2023-01-13T10:47:28.846Z,100451.94
2023-01-13T10:50:09.684Z,100450.38
2023-01-13T10:52:43.740Z,100447.01
2023-01-13T10:55:33.493Z,100445.08
2023-01-13T10:58:17.690Z,100445.80
2023-01-13T11:00:46.380Z,100443.11
2023-01-13T11:03:18.290Z,100441.70
2023-01-13T11:05:55.238Z,100445.67
2023-01-13T11:08:26.608Z,100444.83
2023-01-13T11:10:59.527Z,100447.55
2023-01-13T11:14:01.759Z,100452.28
2023-01-13T11:16:30.323Z,100435.82
2023-01-13T11:19:02.816Z,100438.73
2023-01-13T11:21:49.692Z,100431.71
2023-01-13T11:24:37.406Z,100433.79
2023-01-13T11:27:17.675Z,100428.25
2023-01-13T11:30:10.047Z,100425.65
2023-01-13T11:32:52.952Z,100422.74
2023-01-13T11:35:21.986Z,100420.02
2023-01-13T11:37:57.583Z,100406.98
2023-01-13T11:40:41.210Z,100419.45
2023-01-13T11:43:18.068Z,100416.33
2023-01-13T11:45:55.137Z,100412.45
2023-01-13T11:48:29.091Z,100405.75
2023-01-13T11:51:16.257Z,100401.34
2023-01-13T11:54:03.068Z,100408.41
2023-01-13T11:56:41.662Z,100407.47
2023-01-13T11:59:54.829Z,100396.85
2023-01-13T12:02:52.714Z,100398.30
2023-01-13T12:05:40.440Z,100399.70
2023-01-13T12:08:23.518Z,100414.25
2023-01-13T12:11:14.609Z,100413.28
2023-01-13T12:13:54.790Z,100416.54
2023-01-13T12:16:31.744Z,100385.53
2023-01-13T12:19:08.952Z,100410.27
2023-01-13T12:21:57.005Z,100417.00
2023-01-13T12:24:33.685Z,100422.71
2023-01-13T12:27:12.062Z,100427.09
2023-01-13T12:29:40.282Z,100433.23
2023-01-13T12:32:16.927Z,100427.10
2023-01-13T12:35:01.408Z,100423.19
2023-01-13T12:37:39.338Z,100431.31
2023-01-13T12:40:29.055Z,100434.02
2023-01-13T12:43:38.276Z,100438.95
2023-01-13T12:46:18.714Z,100434.73
2023-01-13T12:48:56.720Z,100441.30
2023-01-13T12:51:56.713Z,100443.91
2023-01-13T12:54:30.732Z,100435.55
2023-01-13T12:56:59.634Z,100452.20
2023-01-13T12:59:27.717Z,100445.10
2023-01-13T13:02:11.112Z,100449.23
2023-01-13T13:04:49.719Z,100452.95
2023-01-13T13:07:35.954Z,100458.10
2023-01-13T13:10:24.453Z,100466.53
2023-01-13T13:13:14.837Z,100459.73
2023-01-13T13:15:44.236Z,100471.30
2023-01-13T13:18:18.519Z,100465.52
2023-01-13T13:21:08.997Z,100469.41
2023-01-13T13:23:37.352Z,100461.80
2023-01-13T13:26:31.108Z,100462.05
2023-01-13T13:29:24.001Z,100466.90
2023-01-13T13:32:21.468Z,100468.20
2023-01-13T13:35:27.039Z,100472.80
2023-01-13T13:38:22.588Z,100471.88
2023-01-13T13:41:09.714Z,100473.06
2023-01-13T13:43:59.794Z,100463.06
2023-01-13T13:46:47.803Z,100471.73
2023-01-13T13:49:22.424Z,100466.16
2023-01-13T13:52:07.388Z,100462.52
2023-01-13T13:54:38.157Z,100462.77
2023-01-13T13:57:16.711Z,100458.29
2023-01-13T13:59:44.914Z,100459.59
2023-01-13T14:02:23.973Z,100464.00
2023-01-13T14:05:12.009Z,100458.65
2023-01-13T14:07:49.144Z,100462.56
2023-01-13T14:10:24.931Z,100463.55
2023-01-13T14:12:53.265Z,100459.48
2023-01-13T14:15:36.829Z,100460.63
2023-01-13T14:18:10.841Z,100462.30
2023-01-13T14:20:40.011Z,100459.70
2023-01-13T14:23:16.571Z,100458.44
2023-01-13T14:25:50.138Z,100459.50
2023-01-13T14:28:21.029Z,100459.23
2023-01-13T14:30:51.804Z,100449.63
2023-01-13T14:33:30.631Z,100454.69
2023-01-13T14:36:13.800Z,100457.49
2023-01-13T14:38:43.897Z,100448.87
2023-01-13T14:41:17.250Z,100461.80
2023-01-13T14:43:47.296Z,100446.23
2023-01-13T14:46:17.734Z,100466.77
2023-01-13T14:48:49.591Z,100470.95
2023-01-13T14:51:24.375Z,100471.08
2023-01-13T14:53:55.288Z,100474.66
2023-01-13T14:56:42.740Z,100472.63
2023-01-13T14:59:35.645Z,100476.79
2023-01-13T15:02:26.954Z,100476.63
2023-01-13T15:05:19.463Z,100477.73
2023-01-13T15:08:19.846Z,100484.54
2023-01-13T15:11:05.402Z,100464.59
2023-01-13T15:13:56.651Z,100492.58
2023-01-13T15:16:28.174Z,100488.72
2023-01-13T15:18:57.984Z,100482.95
2023-01-13T15:21:28.983Z,100478.50
2023-01-13T15:24:00.643Z,100482.94
2023-01-13T15:26:30.336Z,100487.83
2023-01-13T15:29:01.484Z,100486.98
2023-01-13T15:31:29.849Z,100488.02
2023-01-13T15:34:00.559Z,100487.44
2023-01-13T15:36:31.321Z,100489.36
2023-01-13T15:39:01.429Z,100492.62
2023-01-13T15:41:48.200Z,100488.21
2023-01-13T15:44:36.056Z,100488.28
2023-01-13T15:47:07.704Z,100494.70
2023-01-13T15:49:40.647Z,100494.38
2023-01-13T15:52:28.650Z,100498.41
2023-01-13T15:54:57.743Z,100478.77
2023-01-13T15:57:33.473Z,100499.70
2023-01-13T16:00:08.656Z,100507.23
2023-01-13T16:02:41.507Z,100477.20
2023-01-13T16:05:11.106Z,100507.61
2023-01-13T16:07:40.641Z,100501.38
2023-01-13T16:10:27.641Z,100500.01
2023-01-13T16:12:58.994Z,100498.40
2023-01-13T16:15:28.452Z,100508.95
2023-01-13T16:18:00.804Z,100509.08
2023-01-13T16:20:30.281Z,100519.25
2023-01-13T16:23:03.560Z,100518.92
2023-01-13T16:25:32.552Z,100513.98
2023-01-13T16:28:02.003Z,100515.98
2023-01-13T16:30:34.621Z,100495.04
2023-01-13T16:33:04.316Z,100520.19
2023-01-13T16:35:33.216Z,100517.09
2023-01-13T16:38:05.359Z,100518.88
2023-01-13T16:40:36.782Z,100517.77
2023-01-13T16:43:07.004Z,100521.11
2023-01-13T16:45:35.973Z,100526.98
2023-01-13T16:48:06.671Z,100528.48
2023-01-13T16:50:41.262Z,100530.52
2023-01-13T16:53:15.611Z,100525.10
2023-01-13T16:55:44.765Z,100518.86
2023-01-13T16:58:21.016Z,100509.20
2023-01-13T17:00:56.426Z,100529.45
2023-01-13T17:03:25.032Z,100514.13
2023-01-13T17:05:53.509Z,100529.83
2023-01-13T17:08:21.823Z,100522.94
2023-01-13T17:10:50.919Z,100526.90
2023-01-13T17:13:19.725Z,100530.08
2023-01-13T17:15:50.743Z,100535.98
2023-01-13T17:18:24.168Z,100536.66
2023-01-13T17:21:01.626Z,100537.15
2023-01-13T17:23:54.470Z,100536.05
2023-01-13T17:26:35.085Z,100537.35
2023-01-13T17:29:10.850Z,100542.65
2023-01-13T17:31:40.427Z,100546.35
2023-01-13T17:34:21.852Z,100553.80
2023-01-13T17:36:56.500Z,100555.66
2023-01-13T17:39:29.514Z,100558.92
2023-01-13T17:42:09.142Z,100561.89
2023-01-13T17:44:43.753Z,100562.38
2023-01-13T17:47:13.273Z,100529.93
2023-01-13T17:49:41.755Z,100561.16
2023-01-13T17:52:10.384Z,100553.91
2023-01-13T17:54:40.187Z,100560.14
2023-01-13T17:57:08.839Z,100565.38
2023-01-13T17:59:37.136Z,100560.20
2023-01-13T18:02:06.144Z,100565.73
2023-01-13T18:04:35.149Z,100551.92
2023-01-13T18:07:06.048Z,100563.70
2023-01-13T18:09:36.063Z,100569.23
2023-01-13T18:12:04.590Z,100559.64
2023-01-13T18:14:33.106Z,100576.08
2023-01-13T18:17:01.917Z,100562.23
2023-01-13T18:19:49.009Z,100578.93
2023-01-13T18:22:36.090Z,100579.59
2023-01-13T18:25:23.666Z,100581.94
2023-01-13T18:27:52.276Z,100583.20
2023-01-13T18:30:21.556Z,100586.35
2023-01-13T18:32:50.752Z,100588.70
2023-01-13T18:35:24.721Z,100592.79
2023-01-13T18:37:53.090Z,100590.52
2023-01-13T18:40:21.804Z,100593.65
2023-01-13T18:42:52.357Z,100600.94
2023-01-13T18:45:28.592Z,100605.10
2023-01-13T18:48:05.506Z,100611.74
2023-01-13T18:50:35.104Z,100612.85
2023-01-13T18:53:05.921Z,100614.96
2023-01-13T18:55:34.503Z,100612.05
2023-01-13T18:58:03.013Z,100618.45
2023-01-13T19:00:38.791Z,100619.11
2023-01-13T19:05:43.688Z,100629.52
2023-01-13T19:08:11.968Z,100618.48
2023-01-13T19:10:40.287Z,100625.36
2023-01-13T19:13:08.469Z,100628.60
2023-01-13T19:15:37.572Z,100630.55
2023-01-13T19:18:06.106Z,100618.55
2023-01-13T19:20:34.511Z,100632.26
2023-01-13T19:23:03.001Z,100635.60
2023-01-13T19:25:31.662Z,100639.34
2023-01-13T19:28:00.074Z,100638.52
2023-01-13T19:30:31.277Z,100637.53
2023-01-13T19:32:59.693Z,100634.48
2023-01-13T19:35:27.940Z,100642.92
2023-01-13T19:37:56.494Z,100646.33
2023-01-13T19:40:25.272Z,100641.88
2023-01-13T19:43:13.703Z,100645.83
2023-01-13T19:45:45.422Z,100651.29
2023-01-13T19:48:17.253Z,100650.41
2023-01-13T19:50:48.727Z,100650.48
2023-01-13T19:53:18.641Z,100658.41
2023-01-13T19:55:49.833Z,100663.42
2023-01-13T19:58:23.587Z,100663.77
2023-01-13T20:00:56.900Z,100663.39
2023-01-13T20:03:31.715Z,100661.79
2023-01-13T20:06:10.204Z,100664.25
2023-01-13T20:08:40.590Z,100668.74
2023-01-13T20:11:24.535Z,100669.39
2023-01-13T20:13:55.149Z,100675.10
2023-01-13T20:16:26.231Z,100671.29
2023-01-13T20:18:56.442Z,100671.36
2023-01-13T20:21:27.013Z,100662.27
2023-01-13T20:23:57.615Z,100652.23
2023-01-13T20:26:27.518Z,100663.54
2023-01-13T20:28:58.661Z,100656.38
2023-01-13T20:31:27.638Z,100661.98
2023-01-13T20:33:56.043Z,100660.10
2023-01-13T20:36:37.079Z,100664.63
2023-01-13T20:39:08.524Z,100650.98
2023-01-13T20:41:55.138Z,100670.02
2023-01-13T20:44:23.438Z,100673.96
2023-01-13T20:46:54.576Z,100673.92
2023-01-13T20:49:23.821Z,100676.59
2023-01-13T20:51:52.319Z,100673.84
2023-01-13T20:54:20.977Z,100675.66
2023-01-13T20:56:49.471Z,100677.12
2023-01-13T20:59:17.893Z,100682.66
2023-01-13T21:01:46.148Z,100685.64
2023-01-13T21:04:14.594Z,100681.63
2023-01-13T21:06:42.885Z,100681.91
2023-01-13T21:09:11.038Z,100685.11
2023-01-13T21:11:57.751Z,100684.68
2023-01-13T21:14:45.636Z,100685.46
2023-01-13T21:17:37.893Z,100688.13
2023-01-13T21:20:09.640Z,100691.77
2023-01-13T21:22:39.076Z,100690.87
2023-01-13T21:25:08.018Z,100686.17
2023-01-13T21:27:36.179Z,100688.10
2023-01-13T21:30:04.850Z,100688.61
2023-01-13T21:32:33.329Z,100684.73
2023-01-13T21:35:02.215Z,100684.05
2023-01-13T21:37:30.471Z,100686.75
2023-01-13T21:39:58.766Z,100683.64
2023-01-13T21:42:45.996Z,100684.70
2023-01-13T21:45:33.618Z,100681.47
2023-01-13T21:48:02.015Z,100685.69
2023-01-13T21:50:30.355Z,100687.37
2023-01-13T21:52:59.046Z,100685.91
2023-01-13T21:55:30.695Z,100672.87
2023-01-13T21:58:01.169Z,100690.23
2023-01-13T22:00:33.286Z,100693.98
2023-01-13T22:03:07.005Z,100692.08
2023-01-13T22:05:37.488Z,100694.79
2023-01-13T22:08:07.940Z,100696.23
2023-01-13T22:10:57.292Z,100694.75
2023-01-13T22:13:47.528Z,100699.98
2023-01-13T22:16:16.321Z,100701.88
2023-01-13T22:18:45.368Z,100703.95
2023-01-13T22:21:14.700Z,100700.64
2023-01-13T22:23:45.737Z,100696.50
2023-01-13T22:26:15.098Z,100699.48
2023-01-13T22:28:44.365Z,100699.34
2023-01-13T22:31:15.156Z,100702.31
2023-01-13T22:33:47.535Z,100704.71
2023-01-13T22:36:18.229Z,100710.23
2023-01-13T22:38:48.926Z,100703.85
2023-01-13T22:41:19.151Z,100716.83
2023-01-13T22:43:48.565Z,100724.60
2023-01-13T22:46:18.458Z,100719.79
2023-01-13T22:48:48.836Z,100721.81
2023-01-13T22:51:18.876Z,100719.19
2023-01-13T22:53:47.593Z,100719.58
2023-01-13T22:56:19.508Z,100714.98
2023-01-13T22:58:49.176Z,100716.07
2023-01-13T23:01:17.892Z,100721.39
2023-01-13T23:03:49.491Z,100716.63
2023-01-13T23:06:19.896Z,100714.66
2023-01-13T23:08:48.978Z,100723.99
2023-01-13T23:11:19.816Z,100707.26
2023-01-13T23:13:48.427Z,100722.66
2023-01-13T23:16:23.419Z,100720.54
2023-01-13T23:18:51.882Z,100724.11
2023-01-13T23:21:23.225Z,100721.75
2023-01-13T23:23:51.603Z,100724.98
2023-01-13T23:26:20.665Z,100723.95
2023-01-13T23:28:49.278Z,100725.86
2023-01-13T23:31:23.477Z,100724.55
2023-01-13T23:33:52.085Z,100728.30
2023-01-13T23:36:23.881Z,100728.56
2023-01-13T23:38:52.983Z,100728.06
2023-01-13T23:41:25.600Z,100727.99
2023-01-13T23:44:00.464Z,100727.73
2023-01-13T23:46:30.810Z,100722.12
2023-01-13T23:48:59.332Z,100723.41
2023-01-13T23:51:30.107Z,100722.20
2023-01-13T23:53:59.467Z,100720.67
2023-01-13T23:56:30.883Z,100709.33
2023-01-13T23:58:59.307Z,100725.27
